createdAt,value
2023-02-19T00:02:56.148Z,8.3
2023-02-19T00:05:56.151Z,8.1
2023-02-19T00:08:56.157Z,7.8
2023-02-19T00:11:56.159Z,8.4
2023-02-19T00:14:56.160Z,7.4
2023-02-19T00:17:56.193Z,6.5
2023-02-19T00:20:56.170Z,6.7
2023-02-19T00:23:56.187Z,7.1
2023-02-19T00:26:56.191Z,7.2
2023-02-19T00:29:56.188Z,6.4
2023-02-19T00:32:56.206Z,7.9
2023-02-19T00:35:56.227Z,6.9
2023-02-19T00:38:56.200Z,7.3
2023-02-19T00:41:56.210Z,7.3
2023-02-19T00:44:56.210Z,6.5
2023-02-19T00:47:56.214Z,7.3
2023-02-19T00:50:56.220Z,7.3
2023-02-19T00:53:56.269Z,8
2023-02-19T00:56:56.236Z,6.9
2023-02-19T00:59:56.242Z,7.3
2023-02-19T01:02:56.241Z,7.1
2023-02-19T01:05:56.265Z,7.6
2023-02-19T01:08:56.253Z,6.6
2023-02-19T01:11:56.277Z,7
2023-02-19T01:14:56.257Z,6.5
2023-02-19T01:17:56.265Z,5.8
2023-02-19T01:20:56.269Z,6.6
2023-02-19T01:23:56.278Z,6.1
2023-02-19T01:26:56.282Z,6.9
2023-02-19T01:29:56.312Z,6.7
2023-02-19T01:32:56.293Z,6
2023-02-19T01:35:56.297Z,7.2
2023-02-19T01:38:56.312Z,7.3
2023-02-19T01:41:56.306Z,6.9
2023-02-19T01:44:56.304Z,7.2
2023-02-19T01:47:56.337Z,6.5
2023-02-19T01:50:56.318Z,7.4
2023-02-19T01:53:56.320Z,8.9
2023-02-19T01:56:56.321Z,7.1
2023-02-19T01:59:56.326Z,7.6
2023-02-19T02:02:56.332Z,7.2
2023-02-19T02:05:56.369Z,7.5
2023-02-19T02:08:56.345Z,8.9
2023-02-19T02:11:56.353Z,8.6
2023-02-19T02:14:56.354Z,8.8
2023-02-19T02:17:56.359Z,9.4
2023-02-19T02:20:56.361Z,7.8
2023-02-19T02:23:56.392Z,8.9
2023-02-19T02:26:56.376Z,8.2
2023-02-19T02:29:56.380Z,7.6
2023-02-19T02:32:56.382Z,7.1
2023-02-19T02:35:56.391Z,8.5
2023-02-19T02:38:56.394Z,9.5
2023-02-19T02:41:56.399Z,8
2023-02-19T02:44:56.404Z,8.7
2023-02-19T02:47:56.408Z,8.2
2023-02-19T02:50:56.407Z,8.4
2023-02-19T02:53:56.415Z,6.5
2023-02-19T02:56:56.420Z,7.5
2023-02-19T02:59:56.421Z,7.7
2023-02-19T03:02:56.428Z,8.5
2023-02-19T03:05:56.436Z,7.7
2023-02-19T03:08:56.457Z,7.1
2023-02-19T03:11:56.439Z,7.7
2023-02-19T03:14:56.448Z,8
2023-02-19T03:17:56.451Z,8.4
2023-02-19T03:20:56.454Z,8.8
2023-02-19T03:23:56.468Z,8.9
2023-02-19T03:26:56.458Z,8.1
2023-02-19T03:29:56.466Z,9.4
2023-02-19T03:32:56.469Z,8.2
2023-02-19T03:35:56.469Z,8
2023-02-19T03:38:56.475Z,9.5
2023-02-19T03:41:56.487Z,9.3
2023-02-19T03:44:56.486Z,10.1
2023-02-19T03:47:56.487Z,9.9
2023-02-19T03:50:56.490Z,11.9
2023-02-19T03:53:56.498Z,11.6
2023-02-19T03:56:56.505Z,14.5
2023-02-19T03:59:56.510Z,13.8
2023-02-19T04:02:56.510Z,12.7
2023-02-19T04:05:56.517Z,16.1
2023-02-19T04:08:56.520Z,12.4
2023-02-19T04:11:56.532Z,13.9
2023-02-19T04:14:56.534Z,16
2023-02-19T04:17:56.528Z,15.8
2023-02-19T04:20:56.533Z,16
2023-02-19T04:23:56.540Z,18.1
2023-02-19T04:26:56.545Z,16.3
2023-02-19T04:29:56.544Z,14.7
2023-02-19T04:32:56.553Z,12.6
2023-02-19T04:35:56.555Z,11.5
2023-02-19T04:38:56.556Z,9.7
2023-02-19T04:41:56.556Z,9.7
2023-02-19T04:44:56.577Z,8.4
2023-02-19T04:47:56.569Z,6.2
2023-02-19T04:50:56.570Z,7
2023-02-19T04:53:56.577Z,7
2023-02-19T04:56:56.578Z,5.7
2023-02-19T04:59:56.582Z,6.4
2023-02-19T05:02:56.588Z,6.9
2023-02-19T05:05:56.592Z,7.5
2023-02-19T05:08:56.599Z,6.5
2023-02-19T05:11:56.605Z,6.9
2023-02-19T05:14:56.607Z,7.8
2023-02-19T05:17:56.607Z,7.3
2023-02-19T05:20:56.615Z,6.9
2023-02-19T05:23:56.622Z,8
2023-02-19T05:26:56.623Z,8.3
2023-02-19T05:29:56.626Z,7.8
2023-02-19T05:32:56.631Z,9.3
2023-02-19T05:35:56.634Z,8.5
2023-02-19T05:38:56.639Z,8.4
2023-02-19T05:41:56.644Z,9
2023-02-19T05:44:56.645Z,9.2
2023-02-19T05:47:56.656Z,9.5
2023-02-19T05:50:56.655Z,10.3
2023-02-19T05:53:56.683Z,9.3
2023-02-19T05:56:56.668Z,9.8
2023-02-19T05:59:56.678Z,10.8
2023-02-19T06:02:56.741Z,10.1
2023-02-19T06:05:56.682Z,10.6
2023-02-19T06:08:56.693Z,11.5
2023-02-19T06:11:56.691Z,12.6
2023-02-19T06:14:56.690Z,11.8
2023-02-19T06:17:56.707Z,14.7
2023-02-19T06:20:56.695Z,15
2023-02-19T06:23:56.699Z,15.2
2023-02-19T06:26:56.705Z,14.1
2023-02-19T06:29:56.711Z,12.9
2023-02-19T06:32:56.713Z,13.8
2023-02-19T06:35:56.727Z,10.4
2023-02-19T06:38:56.722Z,8.3
2023-02-19T06:41:56.734Z,8
2023-02-19T06:44:56.727Z,8.2
2023-02-19T06:47:56.735Z,8.1
2023-02-19T06:50:56.736Z,8.8
2023-02-19T06:53:56.744Z,10
2023-02-19T06:56:56.770Z,8.7
2023-02-19T06:59:56.744Z,9.6
2023-02-19T07:02:56.772Z,10.1
2023-02-19T07:05:56.748Z,9.1
2023-02-19T07:08:56.745Z,10.5
2023-02-19T07:11:56.748Z,9.4
2023-02-19T07:14:56.749Z,9.8
2023-02-19T07:17:56.753Z,8.7
2023-02-19T07:20:56.752Z,9
2023-02-19T07:23:56.766Z,9.4
2023-02-19T07:26:56.756Z,8.3
2023-02-19T07:29:56.758Z,7.8
2023-02-19T07:32:56.761Z,9.5
2023-02-19T07:35:56.757Z,9.6
2023-02-19T07:38:56.793Z,7.1
2023-02-19T07:41:56.766Z,7.1
2023-02-19T07:44:58.426Z,6.7
2023-02-19T07:47:56.773Z,7.2
2023-02-19T07:50:56.768Z,8
2023-02-19T07:53:56.769Z,7.8
2023-02-19T07:56:56.781Z,9.2
2023-02-19T07:59:56.792Z,8
2023-02-19T08:02:56.811Z,7.3
2023-02-19T08:05:56.828Z,7.4
2023-02-19T08:08:57.134Z,7.4
2023-02-19T08:11:56.852Z,7.5
2023-02-19T08:14:56.855Z,7.6
2023-02-19T08:17:56.860Z,7.9
2023-02-19T08:20:56.869Z,7.5
2023-02-19T08:23:56.879Z,8.2
2023-02-19T08:26:56.888Z,8
2023-02-19T08:29:56.903Z,7.6
2023-02-19T08:32:56.900Z,7.1
2023-02-19T08:35:56.911Z,7.5
2023-02-19T08:38:56.922Z,6.3
2023-02-19T08:41:56.919Z,6.5
2023-02-19T08:44:56.928Z,7.6
2023-02-19T08:47:56.930Z,7
2023-02-19T08:50:56.933Z,6.6
2023-02-19T08:53:56.936Z,7.2
2023-02-19T08:56:56.931Z,7.3
2023-02-19T08:59:56.937Z,6.9
2023-02-19T09:02:56.938Z,6.7
2023-02-19T09:05:56.949Z,7
2023-02-19T09:08:56.954Z,7.4
2023-02-19T09:11:56.954Z,5.5
2023-02-19T09:14:56.969Z,6.4
2023-02-19T09:17:56.966Z,6.4
2023-02-19T09:20:56.966Z,6.9
2023-02-19T09:23:56.970Z,8.2
2023-02-19T09:26:56.974Z,8.2
2023-02-19T09:29:56.979Z,6.8
2023-02-19T09:32:56.989Z,6.9
2023-02-19T09:35:56.986Z,7.2
2023-02-19T09:38:56.989Z,7.4
2023-02-19T09:41:57.002Z,7.3
2023-02-19T09:44:56.999Z,7.2
2023-02-19T09:47:57.005Z,7.1
2023-02-19T09:50:57.006Z,5.9
2023-02-19T09:53:57.030Z,6.9
2023-02-19T09:56:57.024Z,6.4
2023-02-19T09:59:57.020Z,7.1
2023-02-19T10:02:57.026Z,7.6
2023-02-19T10:05:57.034Z,8.4
2023-02-19T10:08:57.029Z,6.5
2023-02-19T10:11:57.037Z,5.4
2023-02-19T10:14:57.041Z,5.6
2023-02-19T10:17:57.053Z,6.2
2023-02-19T10:20:57.056Z,6.7
2023-02-19T10:23:57.057Z,7
2023-02-19T10:26:57.074Z,6.8
2023-02-19T10:29:57.069Z,5.7
2023-02-19T10:32:57.066Z,5.1
2023-02-19T10:35:57.082Z,7.9
2023-02-19T10:38:57.085Z,5.3
2023-02-19T10:41:57.093Z,8.5
2023-02-19T10:44:57.209Z,6.1
2023-02-19T10:47:57.088Z,5.8
2023-02-19T10:50:57.103Z,7.4
2023-02-19T10:53:57.096Z,6.4
2023-02-19T10:56:57.103Z,6.1
2023-02-19T10:59:57.114Z,8.2
2023-02-19T11:02:57.125Z,6.3
2023-02-19T11:05:57.129Z,6.8
2023-02-19T11:08:57.140Z,6.1
2023-02-19T11:11:57.129Z,5.4
2023-02-19T11:14:57.165Z,7
2023-02-19T11:17:57.139Z,6
2023-02-19T11:20:57.137Z,6.1
2023-02-19T11:23:57.145Z,5.6
2023-02-19T11:26:57.150Z,5.2
2023-02-19T11:29:57.148Z,6
2023-02-19T11:32:57.156Z,7.8
2023-02-19T11:35:57.161Z,6.3
2023-02-19T11:38:57.170Z,6.1
2023-02-19T11:41:57.175Z,5.2
2023-02-19T11:44:57.176Z,6.4
2023-02-19T11:47:57.195Z,6.3
2023-02-19T11:50:57.187Z,5.5
2023-02-19T11:53:57.196Z,4.7
2023-02-19T11:56:57.199Z,5.7
2023-02-19T11:59:57.199Z,5.7
2023-02-19T12:02:57.205Z,5.5
2023-02-19T12:05:57.209Z,6.7
2023-02-19T12:08:57.212Z,6.1
2023-02-19T12:11:57.207Z,5.9
2023-02-19T12:14:57.217Z,5
2023-02-19T12:17:57.218Z,4.5
2023-02-19T12:20:57.219Z,3.9
2023-02-19T12:23:57.226Z,4.9
2023-02-19T12:26:57.231Z,5.5
2023-02-19T12:29:57.242Z,5.8
2023-02-19T12:32:57.237Z,5.3
2023-02-19T12:35:57.241Z,3.8
2023-02-19T12:38:57.244Z,4.3
2023-02-19T12:41:57.252Z,5.9
2023-02-19T12:44:57.260Z,5.6
2023-02-19T12:47:57.257Z,3.6
2023-02-19T12:50:57.272Z,4.6
2023-02-19T12:53:57.280Z,5.3
2023-02-19T12:56:57.275Z,5.1
2023-02-19T12:59:57.293Z,4.3
2023-02-19T13:02:57.293Z,5.1
2023-02-19T13:05:57.288Z,5.2
2023-02-19T13:09:06.189Z,5.8
2023-02-19T13:11:57.302Z,5
2023-02-19T13:14:57.307Z,5
2023-02-19T13:17:57.323Z,3.5
2023-02-19T13:20:57.330Z,4.5
2023-02-19T13:23:57.325Z,3.5
2023-02-19T13:26:57.327Z,3.4
2023-02-19T13:29:57.337Z,5.2
2023-02-19T13:32:57.335Z,4.4
2023-02-19T13:35:57.340Z,4.6
2023-02-19T13:38:57.339Z,4.9
2023-02-19T13:41:57.348Z,5.1
2023-02-19T13:44:58.249Z,3.7
2023-02-19T13:47:57.363Z,2.8
2023-02-19T13:50:57.359Z,3.2
2023-02-19T13:53:57.364Z,5.1
2023-02-19T13:56:57.368Z,3.9
2023-02-19T13:59:57.380Z,3.4
2023-02-19T14:02:57.375Z,4.3
2023-02-19T14:05:57.381Z,4.5
2023-02-19T14:08:57.396Z,3.9
2023-02-19T14:11:57.394Z,3.5
2023-02-19T14:14:57.397Z,4.5
2023-02-19T14:17:57.400Z,3.7
2023-02-19T14:20:57.401Z,3.3
2023-02-19T14:23:57.556Z,3.6
2023-02-19T14:26:57.417Z,3.7
2023-02-19T14:29:57.422Z,5
2023-02-19T14:33:09.575Z,4.2
2023-02-19T14:35:57.430Z,4.3
2023-02-19T14:38:57.434Z,2.9
2023-02-19T14:41:57.440Z,3.7
2023-02-19T14:44:57.444Z,6.4
2023-02-19T14:47:57.449Z,5.5
2023-02-19T14:50:57.460Z,4.1
2023-02-19T14:53:57.451Z,3.8
2023-02-19T14:56:57.469Z,3.7
2023-02-19T14:59:57.472Z,3.3
2023-02-19T15:02:57.477Z,2.9
2023-02-19T15:05:57.475Z,2.5
2023-02-19T15:08:57.484Z,4.1
2023-02-19T15:11:57.488Z,3.1
2023-02-19T15:14:57.489Z,3.3
2023-02-19T15:17:57.495Z,4.4
2023-02-19T15:20:57.493Z,4.3
2023-02-19T15:23:57.503Z,3.3
2023-02-19T15:26:57.517Z,4.2
2023-02-19T15:29:57.520Z,4.7
2023-02-19T15:32:57.534Z,3.8
2023-02-19T15:35:57.534Z,4.2
2023-02-19T15:38:57.529Z,2.6
2023-02-19T15:41:59.642Z,3.9
2023-02-19T15:44:57.556Z,4.9
2023-02-19T15:47:57.546Z,3.6
2023-02-19T15:50:57.549Z,3.3
2023-02-19T15:53:57.562Z,3
2023-02-19T15:56:57.557Z,5.5
2023-02-19T15:59:57.559Z,3.5
2023-02-19T16:02:57.621Z,2.9
2023-02-19T16:05:57.570Z,3.3
2023-02-19T16:08:57.577Z,4.6
2023-02-19T16:11:57.581Z,3.1
2023-02-19T16:14:57.584Z,3.5
2023-02-19T16:17:57.583Z,3.7
2023-02-19T16:20:57.590Z,4.4
2023-02-19T16:23:57.593Z,3.1
2023-02-19T16:26:57.598Z,4
2023-02-19T16:29:57.625Z,4.7
2023-02-19T16:32:57.611Z,3.6
2023-02-19T16:35:57.617Z,2.9
2023-02-19T16:38:57.617Z,3.5
2023-02-19T16:41:57.627Z,3.7
2023-02-19T16:44:57.630Z,4.9
2023-02-19T16:47:57.635Z,3.6
2023-02-19T16:50:57.655Z,3.9
2023-02-19T16:53:57.651Z,5.6
2023-02-19T16:56:57.645Z,2.9
2023-02-19T16:59:57.674Z,3.6
2023-02-19T17:02:57.662Z,6
2023-02-19T17:05:57.666Z,5.1
2023-02-19T17:08:57.666Z,4.9
2023-02-19T17:11:57.675Z,4.7
2023-02-19T17:14:57.679Z,4.4
2023-02-19T17:17:57.682Z,5.5
2023-02-19T17:20:57.690Z,3.7
2023-02-19T17:23:57.689Z,5.5
2023-02-19T17:26:57.699Z,4.7
2023-02-19T17:29:57.702Z,5.2
2023-02-19T17:32:57.707Z,4.8
2023-02-19T17:35:57.707Z,4.6
2023-02-19T17:38:57.715Z,4.7
2023-02-19T17:41:57.714Z,6.2
2023-02-19T17:44:57.716Z,5.2
2023-02-19T17:47:57.720Z,4.7
2023-02-19T17:50:57.737Z,5.2
2023-02-19T17:53:57.733Z,6.4
2023-02-19T17:56:57.736Z,5.4
2023-02-19T17:59:57.742Z,5.2
2023-02-19T18:02:57.746Z,6.9
2023-02-19T18:05:57.837Z,6.2
2023-02-19T18:08:57.759Z,7
2023-02-19T18:11:57.758Z,6
2023-02-19T18:14:57.765Z,4.4
2023-02-19T18:17:57.764Z,4.3
2023-02-19T18:20:57.772Z,5.6
2023-02-19T18:23:57.796Z,4.9
2023-02-19T18:26:57.784Z,4.8
2023-02-19T18:29:57.786Z,5.2
2023-02-19T18:32:57.789Z,5.7
2023-02-19T18:35:57.801Z,6.1
2023-02-19T18:38:57.798Z,5.4
2023-02-19T18:41:57.812Z,6.3
2023-02-19T18:44:57.814Z,6.1
2023-02-19T18:47:57.813Z,5
2023-02-19T18:50:57.822Z,5.8
2023-02-19T18:53:57.840Z,5.4
2023-02-19T18:56:57.838Z,7.7
2023-02-19T18:59:57.836Z,6.9
2023-02-19T19:02:57.846Z,5.7
2023-02-19T19:05:57.851Z,7
2023-02-19T19:08:57.854Z,5.3
2023-02-19T19:11:57.926Z,5.3
2023-02-19T19:14:58.011Z,7.6
2023-02-19T19:17:57.892Z,6.4
2023-02-19T19:20:57.875Z,6.3
2023-02-19T19:23:57.894Z,6.9
2023-02-19T19:26:57.880Z,7.9
2023-02-19T19:29:57.885Z,8.3
2023-02-19T19:32:57.992Z,7.2
2023-02-19T19:35:57.894Z,8.3
2023-02-19T19:38:57.899Z,8.6
2023-02-19T19:41:57.917Z,8.8
2023-02-19T19:44:57.949Z,7.4
2023-02-19T19:47:57.926Z,8.7
2023-02-19T19:50:57.919Z,7.7
2023-02-19T19:53:57.920Z,8.6
2023-02-19T19:56:57.926Z,9.1
2023-02-19T19:59:57.930Z,13.1
2023-02-19T20:02:58.013Z,10.7
2023-02-19T20:05:57.934Z,10.1
2023-02-19T20:08:57.943Z,9.4
2023-02-19T20:11:57.948Z,11.3
2023-02-19T20:14:57.949Z,10.5
2023-02-19T20:17:57.972Z,10
2023-02-19T20:20:57.955Z,11.1
2023-02-19T20:23:57.960Z,10.7
2023-02-19T20:26:57.960Z,9.7
2023-02-19T20:29:57.969Z,12.3
2023-02-19T20:32:57.979Z,10.9
2023-02-19T20:35:57.974Z,11.3
2023-02-19T20:38:57.976Z,11.2
2023-02-19T20:41:57.994Z,14
2023-02-19T20:44:57.984Z,11
2023-02-19T20:47:57.996Z,12
2023-02-19T20:50:57.997Z,11.9
2023-02-19T20:53:58.251Z,12.3
2023-02-19T20:56:58.010Z,10.9
2023-02-19T20:59:58.035Z,10.6
2023-02-19T21:02:58.055Z,10.8
2023-02-19T21:05:58.006Z,10.3
2023-02-19T21:08:58.009Z,11
2023-02-19T21:11:58.011Z,11.1
2023-02-19T21:14:58.024Z,10.6
2023-02-19T21:17:58.023Z,11.5
2023-02-19T21:20:58.020Z,10.9
2023-02-19T21:23:58.022Z,11
2023-02-19T21:26:58.028Z,10.2
2023-02-19T21:29:58.028Z,11
2023-02-19T21:32:58.026Z,10.9
2023-02-19T21:35:58.057Z,11.8
2023-02-19T21:38:58.046Z,11.7
2023-02-19T21:41:58.038Z,11
2023-02-19T21:44:58.042Z,10
2023-02-19T21:47:58.039Z,11.7
2023-02-19T21:50:58.057Z,11.2
2023-02-19T21:53:58.045Z,10
2023-02-19T21:56:58.056Z,10.9
2023-02-19T21:59:58.042Z,11
2023-02-19T22:02:58.120Z,11.2
2023-02-19T22:05:58.044Z,9.2
2023-02-19T22:08:58.059Z,9.6
2023-02-19T22:11:58.079Z,9.6
2023-02-19T22:14:58.099Z,9.7
2023-02-19T22:17:58.111Z,8.5
2023-02-19T22:20:58.123Z,9.3
2023-02-19T22:23:58.138Z,8.8
2023-02-19T22:26:58.166Z,8.7
2023-02-19T22:29:58.166Z,7.6
2023-02-19T22:32:58.177Z,9.8
2023-02-19T22:35:58.181Z,7.7
2023-02-19T22:38:58.187Z,8.2
2023-02-19T22:41:58.185Z,8.6
2023-02-19T22:44:58.193Z,8.8
2023-02-19T22:47:58.201Z,8.9
2023-02-19T22:50:58.206Z,8.3
2023-02-19T22:53:58.205Z,8.6
2023-02-19T22:56:58.221Z,9.5
2023-02-19T22:59:58.212Z,10.6
2023-02-19T23:02:58.220Z,9.4
2023-02-19T23:05:58.219Z,11.3
2023-02-19T23:08:58.257Z,9.9
2023-02-19T23:11:58.235Z,9.2
2023-02-19T23:14:58.229Z,10.4
2023-02-19T23:17:58.233Z,9.9
2023-02-19T23:20:58.236Z,10.6
2023-02-19T23:23:58.242Z,11.4
2023-02-19T23:26:58.248Z,11.5
2023-02-19T23:29:58.254Z,10.9
2023-02-19T23:32:58.255Z,11.3
2023-02-19T23:35:58.266Z,11.4
2023-02-19T23:38:58.260Z,11
2023-02-19T23:41:58.262Z,10.9
2023-02-19T23:44:58.260Z,10.7
2023-02-19T23:47:58.264Z,12
2023-02-19T23:50:58.271Z,12.6
2023-02-19T23:53:58.299Z,10.9
2023-02-19T23:56:58.277Z,11.7
2023-02-19T23:59:58.293Z,11.5
